createdAt,value
2018-11-25T00:02:19.218Z,45.03
2018-11-25T00:04:47.572Z,55.30
2018-11-25T00:07:15.976Z,45.07
2018-11-25T00:09:44.371Z,49.03
2018-11-25T00:12:12.806Z,47.20
2018-11-25T00:14:41.163Z,46.10
2018-11-25T00:17:09.592Z,47.67
2018-11-25T00:19:38.125Z,50.00
2018-11-25T00:22:06.521Z,48.63
2018-11-25T00:24:34.900Z,48.53
2018-11-25T00:27:03.222Z,54.20
2018-11-25T00:29:31.617Z,51.57
2018-11-25T00:32:00.024Z,47.83
2018-11-25T00:34:28.437Z,55.40
2018-11-25T00:36:56.871Z,57.53
2018-11-25T00:39:25.303Z,59.80
2018-11-25T00:41:53.645Z,58.57
2018-11-25T00:44:22.016Z,59.70
2018-11-25T00:46:50.379Z,47.60
2018-11-25T00:49:18.710Z,50.83
2018-11-25T00:51:47.237Z,48.97
2018-11-25T00:54:15.566Z,48.50
2018-11-25T00:56:43.915Z,57.23
2018-11-25T00:59:12.303Z,52.07
2018-11-25T01:01:40.608Z,49.73
2018-11-25T01:04:09.045Z,57.13
2018-11-25T01:06:38.256Z,49.93
2018-11-25T01:09:09.006Z,50.13
2018-11-25T01:11:37.464Z,50.60
2018-11-25T01:14:06.028Z,54.57
2018-11-25T01:16:34.422Z,49.60
2018-11-25T01:19:02.802Z,52.07
2018-11-25T01:21:31.162Z,48.83
2018-11-25T01:23:59.500Z,51.40
2018-11-25T01:26:27.837Z,57.10
2018-11-25T01:28:56.174Z,53.70
2018-11-25T01:31:24.601Z,55.60
2018-11-25T01:33:52.916Z,49.27
2018-11-25T01:36:21.346Z,53.83
2018-11-25T01:38:49.802Z,56.57
2018-11-25T01:41:18.136Z,51.53
2018-11-25T01:43:46.567Z,43.07
2018-11-25T01:46:14.995Z,43.30
2018-11-25T01:48:43.415Z,44.07
2018-11-25T01:51:11.775Z,41.70
2018-11-25T01:53:40.182Z,41.93
2018-11-25T01:56:08.533Z,46.80
2018-11-25T01:58:36.938Z,40.27
2018-11-25T02:01:05.799Z,40.80
2018-11-25T02:03:34.115Z,34.93
2018-11-25T02:06:02.427Z,38.73
2018-11-25T02:08:30.857Z,42.17
2018-11-25T02:10:59.163Z,36.37
2018-11-25T02:13:27.581Z,45.60
2018-11-25T02:15:55.960Z,47.53
2018-11-25T02:18:24.356Z,43.33
2018-11-25T02:20:52.694Z,43.40
2018-11-25T02:23:21.083Z,43.50
2018-11-25T02:25:49.453Z,39.90
2018-11-25T02:28:17.847Z,38.97
2018-11-25T02:30:46.447Z,39.47
2018-11-25T02:33:14.843Z,40.43
2018-11-25T02:35:43.185Z,45.13
2018-11-25T02:38:11.584Z,45.80
2018-11-25T02:40:40.038Z,42.43
2018-11-25T02:43:08.438Z,39.93
2018-11-25T02:45:36.775Z,38.17
2018-11-25T02:48:05.149Z,37.37
2018-11-25T02:50:34.124Z,45.57
2018-11-25T02:53:06.872Z,36.40
2018-11-25T02:55:35.264Z,42.73
2018-11-25T02:58:03.607Z,39.67
2018-11-25T03:00:31.960Z,39.27
2018-11-25T03:03:00.276Z,38.80
2018-11-25T03:05:28.659Z,33.30
2018-11-25T03:07:56.979Z,34.10
2018-11-25T03:10:25.439Z,36.80
2018-11-25T03:12:54.184Z,34.30
2018-11-25T03:15:22.564Z,36.03
2018-11-25T03:17:50.907Z,35.13
2018-11-25T03:20:19.323Z,35.03
2018-11-25T03:22:47.698Z,34.47
2018-11-25T03:25:19.948Z,32.57
2018-11-25T03:27:48.342Z,32.93
2018-11-25T03:30:17.989Z,31.70
2018-11-25T03:32:47.327Z,30.90
2018-11-25T03:35:15.741Z,44.60
2018-11-25T03:37:44.190Z,42.63
2018-11-25T03:40:13.715Z,43.27
2018-11-25T03:42:42.073Z,38.87
2018-11-25T03:45:20.157Z,42.40
2018-11-25T03:47:48.522Z,41.23
2018-11-25T03:50:17.176Z,42.07
2018-11-25T03:52:45.594Z,40.63
2018-11-25T03:55:15.823Z,36.57
2018-11-25T03:57:44.116Z,40.20
2018-11-25T04:00:18.559Z,38.30
2018-11-25T04:02:47.068Z,32.73
2018-11-25T04:05:16.424Z,36.37
2018-11-25T04:07:44.808Z,35.00
2018-11-25T04:10:15.031Z,38.53
2018-11-25T04:12:43.314Z,35.30
2018-11-25T04:15:12.594Z,37.40
2018-11-25T04:17:40.893Z,37.20
2018-11-25T04:20:24.736Z,35.20
2018-11-25T04:22:53.043Z,33.43
2018-11-25T04:25:21.462Z,32.00
2018-11-25T04:27:49.800Z,35.37
2018-11-25T04:30:18.983Z,34.93
2018-11-25T04:32:49.424Z,34.87
2018-11-25T04:35:17.886Z,34.47
2018-11-25T04:37:46.200Z,35.33
2018-11-25T04:40:15.401Z,37.07
2018-11-25T04:42:43.691Z,34.90
2018-11-25T04:45:14.779Z,37.63
2018-11-25T04:47:43.502Z,37.90
2018-11-25T04:50:15.047Z,37.50
2018-11-25T04:52:43.405Z,36.63
2018-11-25T04:55:11.812Z,34.97
2018-11-25T04:57:40.183Z,33.87
2018-11-25T05:00:10.982Z,34.13
2018-11-25T05:02:39.799Z,31.80
2018-11-25T05:05:11.767Z,33.20
2018-11-25T05:07:40.281Z,32.37
2018-11-25T05:10:12.693Z,32.77
2018-11-25T05:12:41.130Z,32.20
2018-11-25T05:15:11.219Z,33.50
2018-11-25T05:17:39.579Z,31.23
2018-11-25T05:20:09.679Z,39.97
2018-11-25T05:22:38.104Z,42.87
2018-11-25T05:25:08.880Z,37.10
2018-11-25T05:27:37.284Z,33.27
2018-11-25T05:30:07.792Z,32.63
2018-11-25T05:32:36.187Z,36.23
2018-11-25T05:35:05.730Z,32.13
2018-11-25T05:37:34.149Z,33.03
2018-11-25T05:40:02.486Z,31.90
2018-11-25T05:42:30.835Z,31.73
2018-11-25T05:44:59.153Z,28.30
2018-11-25T05:47:27.503Z,30.20
2018-11-25T05:49:55.800Z,30.30
2018-11-25T05:52:24.225Z,29.33
2018-11-25T05:54:52.627Z,32.40
2018-11-25T05:57:21.001Z,30.47
2018-11-25T05:59:49.369Z,27.73
2018-11-25T06:02:17.954Z,30.53
2018-11-25T06:04:46.320Z,33.90
2018-11-25T06:07:14.672Z,31.07
2018-11-25T06:09:43.089Z,33.03
2018-11-25T06:12:11.476Z,31.77
2018-11-25T06:14:39.931Z,30.67
2018-11-25T06:17:08.320Z,30.20
2018-11-25T06:19:36.685Z,26.50
2018-11-25T06:22:05.380Z,30.87
2018-11-25T06:24:33.736Z,28.43
2018-11-25T06:27:02.065Z,27.80
2018-11-25T06:29:30.373Z,30.00
2018-11-25T06:31:58.808Z,29.43
2018-11-25T06:34:27.095Z,31.40
2018-11-25T06:36:55.688Z,27.03
2018-11-25T06:39:24.147Z,24.90
2018-11-25T06:41:53.373Z,26.93
2018-11-25T06:44:21.810Z,26.57
2018-11-25T06:46:50.284Z,25.17
2018-11-25T06:49:18.618Z,24.43
2018-11-25T06:51:47.034Z,26.70
2018-11-25T06:54:15.341Z,26.90
2018-11-25T06:56:43.660Z,27.70
2018-11-25T06:59:12.059Z,32.90
2018-11-25T07:01:40.459Z,29.60
2018-11-25T07:04:08.792Z,28.50
2018-11-25T07:06:37.188Z,24.17
2018-11-25T07:09:09.902Z,26.40
2018-11-25T07:11:37.314Z,21.83
2018-11-25T07:14:06.134Z,21.20
2018-11-25T07:16:34.568Z,24.70
2018-11-25T07:19:02.895Z,21.10
2018-11-25T07:21:31.392Z,18.63
2018-11-25T07:23:59.736Z,18.73
2018-11-25T07:26:28.091Z,18.23
2018-11-25T07:28:56.509Z,21.00
2018-11-25T07:31:24.908Z,19.27
2018-11-25T07:33:53.403Z,16.57
2018-11-25T07:36:21.689Z,16.03
2018-11-25T07:38:50.115Z,15.90
2018-11-25T07:41:18.550Z,17.27
2018-11-25T07:43:46.883Z,18.17
2018-11-25T07:46:15.321Z,22.37
2018-11-25T07:48:43.696Z,23.33
2018-11-25T07:51:12.037Z,20.50
2018-11-25T07:53:40.355Z,23.93
2018-11-25T07:56:08.695Z,28.30
2018-11-25T07:58:37.141Z,31.43
2018-11-25T08:01:05.605Z,37.77
2018-11-25T08:03:34.199Z,39.37
2018-11-25T08:06:02.998Z,42.03
2018-11-25T08:08:31.429Z,69.73
2018-11-25T08:11:00.188Z,46.17
2018-11-25T08:13:28.608Z,36.57
2018-11-25T08:15:57.583Z,22.23
2018-11-25T08:18:26.041Z,29.47
2018-11-25T08:20:54.403Z,26.67
2018-11-25T08:23:22.858Z,28.80
2018-11-25T08:25:51.153Z,26.93
2018-11-25T08:28:19.821Z,20.53
2018-11-25T08:30:48.294Z,21.67
2018-11-25T08:33:16.632Z,22.20
2018-11-25T08:35:45.080Z,23.57
2018-11-25T08:38:13.519Z,33.00
2018-11-25T08:40:41.976Z,45.63
2018-11-25T08:43:10.394Z,43.90
2018-11-25T08:45:38.860Z,59.57
2018-11-25T08:48:07.294Z,58.77
2018-11-25T08:50:35.673Z,49.17
2018-11-25T08:53:04.112Z,44.17
2018-11-25T08:55:32.569Z,43.40
2018-11-25T08:58:01.081Z,48.87
2018-11-25T09:00:29.485Z,50.53
2018-11-25T09:03:05.592Z,48.20
2018-11-25T09:05:34.901Z,43.17
2018-11-25T09:08:02.909Z,50.33
2018-11-25T09:10:32.776Z,43.57
2018-11-25T09:13:01.231Z,51.83
2018-11-25T09:15:30.633Z,50.43
2018-11-25T09:17:59.365Z,29.30
2018-11-25T09:20:27.677Z,24.93
2018-11-25T09:22:56.054Z,28.77
2018-11-25T09:25:26.656Z,34.13
2018-11-25T09:27:55.769Z,31.53
2018-11-25T09:30:25.186Z,28.90
2018-11-25T09:32:53.523Z,26.73
2018-11-25T09:35:22.073Z,24.83
2018-11-25T09:37:50.476Z,26.23
2018-11-25T09:40:21.837Z,23.47
2018-11-25T09:42:50.212Z,25.23
2018-11-25T09:45:19.472Z,24.03
2018-11-25T09:47:48.203Z,22.97
2018-11-25T09:50:18.767Z,23.60
2018-11-25T09:52:47.115Z,23.20
2018-11-25T09:55:20.179Z,23.37
2018-11-25T09:57:50.871Z,25.83
2018-11-25T10:00:23.208Z,24.73
2018-11-25T10:02:51.517Z,25.77
2018-11-25T10:05:19.855Z,23.33
2018-11-25T10:07:48.181Z,22.87
2018-11-25T10:10:19.703Z,24.43
2018-11-25T10:12:48.143Z,25.27
2018-11-25T10:15:19.557Z,35.20
2018-11-25T10:17:47.972Z,29.37
2018-11-25T10:20:22.521Z,28.80
2018-11-25T10:22:50.892Z,26.13
2018-11-25T10:25:20.430Z,26.67
2018-11-25T10:27:49.017Z,25.60
2018-11-25T10:30:21.623Z,24.90
2018-11-25T10:32:52.476Z,23.73
2018-11-25T10:35:21.043Z,25.47
2018-11-25T10:37:49.357Z,22.70
2018-11-25T10:40:19.676Z,26.90
2018-11-25T10:42:48.086Z,22.30
2018-11-25T10:45:17.655Z,23.70
2018-11-25T10:47:46.023Z,23.40
2018-11-25T10:50:16.170Z,23.40
2018-11-25T10:52:44.588Z,22.77
2018-11-25T10:55:13.876Z,22.97
2018-11-25T10:57:42.912Z,23.57
2018-11-25T11:00:19.133Z,23.50
2018-11-25T11:02:47.620Z,26.13
2018-11-25T11:05:21.264Z,23.27
2018-11-25T11:07:49.627Z,22.77
2018-11-25T11:10:18.028Z,21.63
2018-11-25T11:12:46.348Z,23.40
2018-11-25T11:15:14.878Z,22.97
2018-11-25T11:17:43.339Z,21.70
2018-11-25T11:20:11.756Z,21.57
2018-11-25T11:22:40.061Z,22.87
2018-11-25T11:25:09.424Z,18.60
2018-11-25T11:27:37.799Z,17.97
2018-11-25T11:30:10.982Z,17.23
2018-11-25T11:32:43.807Z,15.50
2018-11-25T11:35:12.224Z,17.97
2018-11-25T11:37:40.613Z,17.07
2018-11-25T11:40:12.352Z,18.17
2018-11-25T11:42:40.752Z,15.93
2018-11-25T11:45:10.795Z,14.00
2018-11-25T11:47:39.228Z,12.47
2018-11-25T11:50:16.083Z,11.60
2018-11-25T11:52:44.600Z,12.80
2018-11-25T11:55:14.121Z,12.43
2018-11-25T11:57:43.304Z,11.87
2018-11-25T12:00:15.528Z,12.40
2018-11-25T12:02:43.936Z,12.70
2018-11-25T12:05:12.449Z,14.00
2018-11-25T12:07:40.838Z,11.27
2018-11-25T12:10:12.391Z,11.10
2018-11-25T12:12:40.817Z,17.00
2018-11-25T12:15:12.301Z,18.63
2018-11-25T12:17:40.647Z,11.80
2018-11-25T12:20:09.882Z,11.47
2018-11-25T12:22:38.700Z,9.50
2018-11-25T12:25:10.103Z,9.37
2018-11-25T12:27:38.697Z,10.63
2018-11-25T12:30:09.644Z,88.80
2018-11-25T12:32:38.249Z,20.33
2018-11-25T12:35:07.261Z,35.77
2018-11-25T12:37:36.168Z,20.93
2018-11-25T12:40:04.346Z,20.53
2018-11-25T12:42:32.754Z,10.97
2018-11-25T12:45:01.151Z,9.50
2018-11-25T12:47:29.596Z,27.60
2018-11-25T12:49:57.972Z,16.23
2018-11-25T12:52:26.324Z,11.47
2018-11-25T12:54:54.636Z,9.63
2018-11-25T12:57:23.009Z,10.17
2018-11-25T12:59:51.378Z,12.47
2018-11-25T13:02:19.739Z,15.30
2018-11-25T13:04:48.074Z,19.33
2018-11-25T13:07:16.507Z,10.80
2018-11-25T13:09:44.788Z,10.77
2018-11-25T13:12:13.288Z,10.43
2018-11-25T13:14:41.666Z,13.73
2018-11-25T13:17:10.020Z,14.20
2018-11-25T13:19:38.417Z,13.83
2018-11-25T13:22:07.831Z,13.17
2018-11-25T13:24:36.265Z,13.83
2018-11-25T13:27:05.227Z,15.67
2018-11-25T13:29:33.624Z,19.83
2018-11-25T13:32:02.031Z,12.80
2018-11-25T13:34:30.394Z,9.87
2018-11-25T13:36:58.797Z,12.03
2018-11-25T13:39:27.089Z,10.70
2018-11-25T13:41:55.535Z,10.73
2018-11-25T13:44:23.906Z,9.57
2018-11-25T13:46:52.271Z,9.53
2018-11-25T13:49:20.639Z,13.13
2018-11-25T13:51:49.173Z,15.77
2018-11-25T13:54:17.499Z,15.00
2018-11-25T13:56:45.908Z,17.90
2018-11-25T13:59:14.241Z,17.07
2018-11-25T14:01:42.563Z,16.53
2018-11-25T14:04:10.892Z,15.67
2018-11-25T14:06:39.365Z,13.83
2018-11-25T14:09:12.083Z,10.50
2018-11-25T14:11:40.433Z,9.77
2018-11-25T14:14:08.742Z,11.83
2018-11-25T14:16:37.107Z,10.17
2018-11-25T14:19:05.787Z,12.50
2018-11-25T14:21:34.196Z,16.27
2018-11-25T14:24:02.536Z,15.50
2018-11-25T14:26:39.221Z,16.03
2018-11-25T14:29:07.591Z,15.87
2018-11-25T14:31:35.987Z,15.37
2018-11-25T14:34:04.321Z,14.60
2018-11-25T14:36:33.017Z,18.13
2018-11-25T14:39:01.485Z,17.73
2018-11-25T14:41:29.855Z,21.30
2018-11-25T14:43:58.156Z,23.53
2018-11-25T14:46:26.633Z,28.60
2018-11-25T14:48:54.943Z,20.07
2018-11-25T14:51:23.358Z,16.27
2018-11-25T14:53:52.646Z,13.73
2018-11-25T14:56:20.903Z,15.10
2018-11-25T14:58:49.472Z,14.17
2018-11-25T15:01:17.939Z,12.70
2018-11-25T15:03:46.430Z,12.30
2018-11-25T15:06:14.877Z,11.77
2018-11-25T15:08:43.394Z,12.70
2018-11-25T15:11:11.785Z,10.13
2018-11-25T15:13:40.195Z,13.67
2018-11-25T15:16:10.795Z,20.20
2018-11-25T15:18:39.102Z,40.47
2018-11-25T15:21:08.641Z,27.97
2018-11-25T15:23:37.132Z,22.30
2018-11-25T15:26:06.339Z,26.13
2018-11-25T15:28:34.916Z,22.40
2018-11-25T15:31:03.227Z,21.03
2018-11-25T15:33:31.587Z,20.57
2018-11-25T15:35:59.910Z,22.03
2018-11-25T15:38:28.232Z,19.73
2018-11-25T15:40:57.322Z,17.63
2018-11-25T15:43:25.091Z,19.57
2018-11-25T15:45:53.468Z,16.27
2018-11-25T15:48:27.585Z,20.03
2018-11-25T15:50:55.917Z,22.07
2018-11-25T15:53:24.296Z,20.03
2018-11-25T15:55:54.182Z,22.33
2018-11-25T15:58:22.537Z,19.47
2018-11-25T16:00:52.193Z,18.03
2018-11-25T16:03:20.672Z,16.57
2018-11-25T16:05:55.365Z,19.23
2018-11-25T16:08:23.918Z,19.70
2018-11-25T16:10:52.393Z,19.70
2018-11-25T16:13:20.789Z,20.57
2018-11-25T16:15:49.705Z,19.53
2018-11-25T16:18:18.701Z,19.73
2018-11-25T16:20:48.492Z,23.80
2018-11-25T16:23:16.923Z,36.77
2018-11-25T16:25:48.952Z,22.20
2018-11-25T16:28:19.001Z,22.17
2018-11-25T16:30:47.531Z,22.33
2018-11-25T16:33:15.903Z,21.93
2018-11-25T16:35:44.331Z,21.67
2018-11-25T16:38:12.681Z,22.13
2018-11-25T16:40:40.977Z,19.37
2018-11-25T16:43:09.684Z,19.93
2018-11-25T16:45:38.051Z,21.63
2018-11-25T16:48:07.442Z,21.97
2018-11-25T16:50:35.748Z,24.77
2018-11-25T16:53:04.107Z,25.43
2018-11-25T16:55:32.617Z,26.13
2018-11-25T16:58:00.952Z,23.80
2018-11-25T17:00:29.400Z,35.43
2018-11-25T17:02:57.719Z,30.33
2018-11-25T17:05:31.672Z,27.63
2018-11-25T17:09:06.435Z,26.70
2018-11-25T17:11:34.735Z,23.60
2018-11-25T17:14:03.095Z,24.97
2018-11-25T17:16:31.492Z,25.17
2018-11-25T17:18:59.858Z,25.33
2018-11-25T17:21:28.228Z,24.97
2018-11-25T17:23:56.695Z,24.07
2018-11-25T17:26:25.088Z,26.40
2018-11-25T17:28:53.407Z,30.33
2018-11-25T17:31:21.847Z,37.33
2018-11-25T17:33:50.211Z,26.97
2018-11-25T17:36:18.821Z,27.00
2018-11-25T17:38:47.350Z,24.93
2018-11-25T17:41:15.780Z,29.50
2018-11-25T17:43:44.148Z,23.53
2018-11-25T17:46:12.594Z,25.93
2018-11-25T17:48:43.234Z,32.10
2018-11-25T17:51:11.636Z,42.57
2018-11-25T17:53:39.984Z,30.53
2018-11-25T17:56:08.273Z,38.73
2018-11-25T17:58:36.788Z,38.33
2018-11-25T18:01:06.840Z,37.07
2018-11-25T18:03:36.529Z,33.70
2018-11-25T18:06:04.926Z,32.93
2018-11-25T18:08:33.288Z,34.83
2018-11-25T18:11:01.635Z,32.33
2018-11-25T18:13:32.170Z,36.90
2018-11-25T18:16:02.101Z,36.50
2018-11-25T18:18:33.963Z,31.80
2018-11-25T18:21:03.868Z,35.23
2018-11-25T18:23:32.335Z,35.07
2018-11-25T18:26:00.720Z,33.40
2018-11-25T18:28:41.842Z,35.87
2018-11-25T18:31:11.864Z,39.60
2018-11-25T18:33:40.383Z,33.07
2018-11-25T18:36:10.468Z,33.47
2018-11-25T18:38:38.879Z,29.77
2018-11-25T18:41:07.594Z,36.00
2018-11-25T18:43:36.011Z,32.97
2018-11-25T18:46:05.174Z,32.47
2018-11-25T18:48:34.683Z,35.67
2018-11-25T18:51:03.019Z,33.37
2018-11-25T18:53:31.444Z,28.33
2018-11-25T18:55:59.793Z,35.63
2018-11-25T18:58:28.276Z,29.30
2018-11-25T19:01:00.035Z,30.30
2018-11-25T19:03:28.398Z,30.53
2018-11-25T19:05:56.759Z,30.77
2018-11-25T19:08:25.165Z,30.27
2018-11-25T19:10:53.723Z,28.07
2018-11-25T19:13:22.096Z,30.47
2018-11-25T19:15:50.502Z,29.80
2018-11-25T19:18:19.059Z,31.50
2018-11-25T19:20:47.564Z,28.80
2018-11-25T19:23:16.169Z,36.27
2018-11-25T19:25:44.536Z,44.77
2018-11-25T19:28:12.908Z,32.77
2018-11-25T19:30:41.240Z,28.73
2018-11-25T19:33:10.685Z,28.20
2018-11-25T19:35:52.815Z,27.60
2018-11-25T19:38:23.109Z,26.90
2018-11-25T19:40:51.646Z,33.20
2018-11-25T19:43:20.143Z,38.43
2018-11-25T19:45:48.484Z,29.27
2018-11-25T19:48:17.078Z,28.70
2018-11-25T19:50:45.784Z,26.30
2018-11-25T19:53:16.254Z,32.80
2018-11-25T19:55:45.451Z,35.47
2018-11-25T19:58:13.861Z,30.50
2018-11-25T20:00:42.204Z,29.77
2018-11-25T20:03:11.511Z,33.67
2018-11-25T20:05:39.940Z,55.50
2018-11-25T20:08:08.682Z,25.90
2018-11-25T20:10:37.136Z,28.50
2018-11-25T20:13:06.827Z,28.33
2018-11-25T20:15:36.174Z,28.67
2018-11-25T20:18:06.023Z,30.43
2018-11-25T20:20:34.360Z,28.33
2018-11-25T20:23:02.805Z,31.57
2018-11-25T20:25:31.271Z,31.80
2018-11-25T20:27:59.745Z,33.33
2018-11-25T20:30:29.888Z,37.33
2018-11-25T20:33:03.584Z,38.07
2018-11-25T20:35:31.969Z,36.40
2018-11-25T20:38:05.922Z,36.20
2018-11-25T20:40:34.270Z,42.93
2018-11-25T20:43:03.254Z,39.73
2018-11-25T20:45:38.993Z,38.10
2018-11-25T20:48:05.916Z,31.90
2018-11-25T20:50:34.356Z,32.10
2018-11-25T20:53:08.391Z,38.63
2018-11-25T20:55:37.304Z,43.40
2018-11-25T20:58:07.439Z,58.63
2018-11-25T21:00:36.564Z,46.07
2018-11-25T21:03:07.267Z,35.30
2018-11-25T21:05:36.878Z,41.40
2018-11-25T21:08:05.733Z,37.23
2018-11-25T21:10:34.091Z,39.83
2018-11-25T21:13:02.635Z,31.93
2018-11-25T21:15:36.481Z,32.70
2018-11-25T21:18:06.593Z,31.90
2018-11-25T21:20:35.884Z,33.50
2018-11-25T21:23:07.454Z,32.40
2018-11-25T21:25:37.835Z,31.57
2018-11-25T21:28:08.195Z,33.83
2018-11-25T21:30:37.781Z,35.67
2018-11-25T21:33:06.664Z,30.60
2018-11-25T21:35:35.567Z,29.97
2018-11-25T21:38:04.605Z,30.47
2018-11-25T21:40:33.360Z,28.37
2018-11-25T21:43:02.257Z,29.47
2018-11-25T21:45:31.822Z,28.97
2018-11-25T21:48:00.508Z,25.87
2018-11-25T21:50:29.942Z,25.20
2018-11-25T21:52:58.320Z,23.63
2018-11-25T21:55:26.639Z,24.47
2018-11-25T21:57:55.283Z,25.27
2018-11-25T22:00:25.135Z,22.93
2018-11-25T22:02:53.420Z,24.40
2018-11-25T22:05:24.911Z,23.60
2018-11-25T22:07:51.968Z,26.03
2018-11-25T22:10:21.225Z,24.73
2018-11-25T22:12:50.557Z,24.57
2018-11-25T22:15:21.115Z,24.00
2018-11-25T22:17:50.152Z,26.27
2018-11-25T22:20:19.201Z,26.63
2018-11-25T22:22:48.407Z,25.73
2018-11-25T22:25:19.546Z,26.23
2018-11-25T22:27:48.340Z,26.23
2018-11-25T22:30:21.678Z,23.87
2018-11-25T22:32:50.976Z,26.33
2018-11-25T22:35:21.209Z,25.77
2018-11-25T22:37:49.571Z,27.43
2018-11-25T22:40:18.850Z,29.17
2018-11-25T22:42:48.046Z,26.20
2018-11-25T22:45:18.326Z,23.73
2018-11-25T22:47:46.821Z,27.70
2018-11-25T22:50:16.329Z,26.43
2018-11-25T22:52:44.877Z,27.20
2018-11-25T22:55:22.553Z,27.07
2018-11-25T22:57:50.924Z,30.97
2018-11-25T23:00:23.327Z,30.23
2018-11-25T23:02:51.708Z,27.93
2018-11-25T23:05:31.885Z,32.23
2018-11-25T23:08:00.223Z,31.53
2018-11-25T23:10:28.559Z,30.60
2018-11-25T23:12:56.852Z,31.00
2018-11-25T23:15:25.228Z,29.50
2018-11-25T23:17:53.618Z,30.40
2018-11-25T23:20:22.004Z,30.17
2018-11-25T23:22:50.381Z,40.97
2018-11-25T23:25:18.772Z,30.67
2018-11-25T23:27:47.120Z,31.73
2018-11-25T23:30:15.524Z,32.67
2018-11-25T23:32:44.108Z,31.97
2018-11-25T23:35:16.280Z,29.70
2018-11-25T23:37:44.670Z,31.60
2018-11-25T23:40:13.117Z,32.13
2018-11-25T23:42:41.460Z,33.73
2018-11-25T23:45:14.722Z,32.07
2018-11-25T23:47:43.165Z,26.53
2018-11-25T23:50:12.397Z,25.43
2018-11-25T23:52:41.064Z,26.33
2018-11-25T23:55:10.874Z,28.53
2018-11-25T23:57:39.518Z,27.27
